Tropical Cyclones
[Index]
Main Index Home Page Stock Weather Photos Extreme Storms Discussion Storm News and Storm Chasing Reports Tropical Cyclones / Hurricanes / Typhoons Weather Data and Links Wild Fires / Bushfires Weather Observation Techniques Weather Picture Catalogue Tornado Pictures and Reports Stock Video Footage and DVDs for sale
Season 1998-1999 Tropical Cyclone HALI Track Map
Season 1998-1999 Summaries: [BoM-AU] [JTWC-AU] [JTWC-SIO] [JTWC-SPAC] [JTWC-SH]
<<- Previous TC | JTWC 1998-1999 Season | Next TC ->>

click for intensity scale information  Lat/long Grid: Show Hide

 Date Labels: Show Hide

Joint Typhoon Warning Centre Cyclone Data

Name: HALI

11 Mar 1999 06:00 UTC to 18 Mar 1999 00:00 UTC

    date/time    lat    long     hPa   cat  kts
1999-03-11 06   18.8   154.2W                 25          
1999-03-11 12   18.8   155.4W                 25          
1999-03-11 18   19.0   156.7W                 25          
1999-03-12 00   19.6   158.5W                 25          
1999-03-12 06   20.0   159.1W                 30          
1999-03-12 12   20.2   159.4W                 35          
1999-03-12 18   20.2   159.7W           1     40          
1999-03-13 00   20.1   160.2W           1     50          
1999-03-13 06   20.2   160.7W           1     50          
1999-03-13 12   20.3   161.2W           1     40          
1999-03-13 18   20.2   161.9W           1     40          
1999-03-14 00   20.1   162.3W           1     40          
1999-03-14 06   20.2   162.7W           1     40          
1999-03-14 12   20.3   163.0W           1     40          
1999-03-14 18   20.3   163.2W           1     40          
1999-03-15 00   20.2   163.5W           1     40          
1999-03-15 06   20.1   163.9W           1     40          
1999-03-15 12   20.6   164.3W           1     40          
1999-03-15 18   21.3   164.2W           1     45          
1999-03-16 00   21.9   164.1W           1     45          
1999-03-16 06   22.4   163.8W           1     45          
1999-03-16 12   22.7   163.4W           1     45          
1999-03-16 18   23.1   163.9W           1     40          
1999-03-17 00   23.8   163.9W           1     40          
1999-03-17 06   24.0   163.5W                 30          
1999-03-17 12   24.1   162.8W                 30          
1999-03-18 00   24.3   162.2W                 30          
Winds are 1-min average.

Tropical cyclone tracks developed by Michael Bath using data from the Joint Typhoon Warning Centre Best Tracks and Google Maps.


[Australian Severe Weather index] [Copyright Notice] [Email Contacts] [Search This Site] [Privacy Policy]
Document: tropical_cyclone_hali.htm Updated: 18 September 2016